createdAt,value
2022-12-25T00:00:00.086Z,10.70
2022-12-25T00:02:27.188Z,11.43
2022-12-25T00:04:54.065Z,10.30
2022-12-25T00:07:20.990Z,11.10
2022-12-25T00:09:47.793Z,10.57
2022-12-25T00:12:14.685Z,9.38
2022-12-25T00:14:41.468Z,9.82
2022-12-25T00:17:08.557Z,9.70
2022-12-25T00:19:35.856Z,10.15
2022-12-25T00:22:02.723Z,9.52
2022-12-25T00:24:29.510Z,10.32
2022-12-25T00:26:56.355Z,9.90
2022-12-25T00:29:23.164Z,11.30
2022-12-25T00:31:50.258Z,8.20
2022-12-25T00:34:17.147Z,8.00
2022-12-25T00:36:43.946Z,8.55
2022-12-25T00:39:10.832Z,6.80
2022-12-25T00:41:56.223Z,6.63
2022-12-25T00:44:23.092Z,6.85
2022-12-25T00:46:50.236Z,7.32
2022-12-25T00:49:17.222Z,8.88
2022-12-25T00:51:44.201Z,8.60
2022-12-25T00:54:11.002Z,8.07
2022-12-25T00:56:37.869Z,7.65
2022-12-25T00:59:04.719Z,7.72
2022-12-25T01:01:32.165Z,8.38
2022-12-25T01:04:00.015Z,8.63
2022-12-25T01:06:34.015Z,6.85
2022-12-25T01:09:19.674Z,5.80
2022-12-25T01:11:50.533Z,6.20
2022-12-25T01:14:25.468Z,5.80
2022-12-25T01:16:52.446Z,5.95
2022-12-25T01:19:19.348Z,5.95
2022-12-25T01:21:46.194Z,5.55
2022-12-25T01:24:13.040Z,5.72
2022-12-25T01:26:39.920Z,4.72
2022-12-25T01:29:06.748Z,5.07
2022-12-25T01:31:33.623Z,4.50
2022-12-25T01:34:00.525Z,5.65
2022-12-25T01:36:27.428Z,5.72
2022-12-25T01:38:54.933Z,5.53
2022-12-25T01:41:23.927Z,5.53
2022-12-25T01:43:58.765Z,4.88
2022-12-25T01:46:25.706Z,4.88
2022-12-25T01:48:53.914Z,4.88
2022-12-25T01:51:30.801Z,4.45
2022-12-25T01:54:01.224Z,3.80
2022-12-25T01:56:28.996Z,4.10
2022-12-25T01:58:57.000Z,4.90
2022-12-25T02:01:23.955Z,4.22
2022-12-25T02:03:55.593Z,4.60
2022-12-25T02:06:22.536Z,4.13
2022-12-25T02:08:49.875Z,4.22
2022-12-25T02:11:36.687Z,6.13
2022-12-25T02:14:03.647Z,4.60
2022-12-25T02:16:35.032Z,5.60
2022-12-25T02:19:46.066Z,4.53
2022-12-25T02:22:48.278Z,5.30
2022-12-25T02:25:36.175Z,5.88
2022-12-25T02:28:27.647Z,5.70
2022-12-25T02:31:03.219Z,4.75
2022-12-25T02:33:52.486Z,4.38
2022-12-25T02:36:23.519Z,5.15
2022-12-25T02:39:13.194Z,5.20
2022-12-25T02:41:43.551Z,4.13
2022-12-25T02:44:33.576Z,4.78
2022-12-25T02:47:20.036Z,4.45
2022-12-25T02:50:19.537Z,4.20
2022-12-25T02:53:05.981Z,4.55
2022-12-25T02:55:54.468Z,4.93
2022-12-25T02:58:41.287Z,4.38
2022-12-25T03:01:34.279Z,4.25
2022-12-25T03:04:25.052Z,4.43
2022-12-25T03:07:06.476Z,4.68
2022-12-25T03:10:17.903Z,4.03
2022-12-25T03:12:53.803Z,4.13
2022-12-25T03:15:39.587Z,4.00
2022-12-25T03:18:12.612Z,4.10
2022-12-25T03:23:49.927Z,3.20
2022-12-25T03:26:36.145Z,3.08
2022-12-25T03:29:03.531Z,3.00
2022-12-25T03:31:49.252Z,3.25
2022-12-25T03:35:01.188Z,3.35
2022-12-25T03:37:39.194Z,3.60
2022-12-25T03:40:50.519Z,3.95
2022-12-25T03:43:32.553Z,4.20
2022-12-25T03:46:05.380Z,2.78
2022-12-25T03:48:53.775Z,2.83
2022-12-25T03:51:43.490Z,3.30
2022-12-25T03:54:30.120Z,3.45
2022-12-25T03:57:16.111Z,3.55
2022-12-25T04:00:01.497Z,3.45
2022-12-25T04:02:47.166Z,3.05
2022-12-25T04:05:32.509Z,2.80
2022-12-25T04:08:17.795Z,3.40
2022-12-25T04:11:03.227Z,3.85
2022-12-25T04:13:48.808Z,3.95
2022-12-25T04:16:34.474Z,4.80
2022-12-25T04:19:19.875Z,3.80
2022-12-25T04:22:05.451Z,3.90
2022-12-25T04:24:51.098Z,3.42
2022-12-25T04:27:36.717Z,3.50
2022-12-25T04:30:22.729Z,3.92
2022-12-25T04:33:08.077Z,3.92
2022-12-25T04:35:53.656Z,4.18
2022-12-25T04:38:21.054Z,4.25
2022-12-25T04:40:48.003Z,4.18
2022-12-25T04:43:14.887Z,3.65
2022-12-25T04:45:42.567Z,3.58
2022-12-25T04:48:09.370Z,4.50
2022-12-25T04:50:36.231Z,3.60
2022-12-25T04:53:03.041Z,4.32
2022-12-25T04:55:29.848Z,4.00
2022-12-25T04:57:56.627Z,4.75
2022-12-25T05:00:23.558Z,4.78
2022-12-25T05:02:50.538Z,4.20
2022-12-25T05:05:17.518Z,5.25
2022-12-25T05:07:44.346Z,4.93
2022-12-25T05:10:11.549Z,4.50
2022-12-25T05:12:38.578Z,4.88
2022-12-25T05:15:05.916Z,4.35
2022-12-25T05:17:32.750Z,4.22
2022-12-25T05:19:59.634Z,4.90
2022-12-25T05:22:26.537Z,3.95
2022-12-25T05:24:53.370Z,4.43
2022-12-25T05:27:20.712Z,5.60
2022-12-25T05:29:47.705Z,3.38
2022-12-25T05:32:14.535Z,3.63
2022-12-25T05:34:44.400Z,3.72
2022-12-25T05:37:11.410Z,2.70
2022-12-25T05:39:38.194Z,3.40
2022-12-25T05:42:05.034Z,4.32
2022-12-25T05:44:31.836Z,3.85
2022-12-25T05:46:58.724Z,3.00
2022-12-25T05:49:25.623Z,4.47
2022-12-25T05:51:52.686Z,4.05
2022-12-25T05:54:25.535Z,3.30
2022-12-25T05:56:52.365Z,3.40
2022-12-25T05:59:19.436Z,3.63
2022-12-25T06:01:49.500Z,4.60
2022-12-25T06:04:16.418Z,5.97
2022-12-25T06:06:43.354Z,3.20
2022-12-25T06:09:12.252Z,3.42
2022-12-25T06:11:39.763Z,2.50
2022-12-25T06:14:06.715Z,2.72
2022-12-25T06:16:38.006Z,3.75
2022-12-25T06:19:05.624Z,3.08
2022-12-25T06:21:32.683Z,2.97
2022-12-25T06:24:02.686Z,3.03
2022-12-25T06:26:29.622Z,3.40
2022-12-25T06:28:56.445Z,3.50
2022-12-25T06:31:24.176Z,3.50
2022-12-25T06:33:51.206Z,2.28
2022-12-25T06:36:22.608Z,1.70
2022-12-25T06:38:49.919Z,1.75
2022-12-25T06:41:25.362Z,1.60
2022-12-25T06:44:06.160Z,1.88
2022-12-25T06:46:33.012Z,1.63
2022-12-25T06:49:00.267Z,1.23
2022-12-25T06:51:36.121Z,1.30
2022-12-25T06:54:06.031Z,1.67
2022-12-25T06:56:33.615Z,1.98
2022-12-25T06:59:11.991Z,1.95
2022-12-25T07:01:48.327Z,3.20
2022-12-25T07:04:28.467Z,3.42
2022-12-25T07:06:55.326Z,3.75
2022-12-25T07:09:22.129Z,2.53
2022-12-25T07:11:49.137Z,3.05
2022-12-25T07:14:24.213Z,3.45
2022-12-25T07:16:51.678Z,2.30
2022-12-25T07:19:19.262Z,2.00
2022-12-25T07:21:46.361Z,3.00
2022-12-25T07:24:18.804Z,2.38
2022-12-25T07:26:45.625Z,2.88
2022-12-25T07:29:12.470Z,3.20
2022-12-25T07:31:39.321Z,3.25
2022-12-25T07:34:08.894Z,3.65
2022-12-25T07:36:35.844Z,3.40
2022-12-25T07:39:02.653Z,2.83
2022-12-25T07:41:29.471Z,3.17
2022-12-25T07:43:56.344Z,3.25
2022-12-25T07:46:23.740Z,6.40
2022-12-25T07:48:52.709Z,4.82
2022-12-25T07:51:20.902Z,5.03
2022-12-25T07:53:48.172Z,4.18
2022-12-25T07:56:17.954Z,3.70
2022-12-25T07:58:45.460Z,3.47
2022-12-25T08:01:15.074Z,4.28
2022-12-25T08:03:42.131Z,4.38
2022-12-25T08:06:10.605Z,4.72
2022-12-25T08:08:38.357Z,4.22
2022-12-25T08:11:07.648Z,3.20
2022-12-25T08:13:35.346Z,2.80
2022-12-25T08:16:04.883Z,2.10
2022-12-25T08:18:32.198Z,2.58
2022-12-25T08:21:10.619Z,2.00
2022-12-25T08:23:39.701Z,2.00
2022-12-25T08:26:08.540Z,2.42
2022-12-25T08:28:35.877Z,1.98
2022-12-25T08:31:16.471Z,2.55
2022-12-25T08:33:43.948Z,1.90
2022-12-25T08:36:11.922Z,2.35
2022-12-25T08:38:39.341Z,2.28
2022-12-25T08:41:06.447Z,1.80
2022-12-25T08:43:33.429Z,2.13
2022-12-25T08:46:00.323Z,2.10
2022-12-25T08:48:28.145Z,3.15
2022-12-25T08:50:55.045Z,1.73
2022-12-25T08:53:22.503Z,2.25
2022-12-25T08:55:49.771Z,2.30
2022-12-25T08:58:16.799Z,2.70
2022-12-25T09:00:43.737Z,2.13
2022-12-25T09:03:12.863Z,2.03
2022-12-25T09:05:39.796Z,1.98
2022-12-25T09:08:06.838Z,2.20
2022-12-25T09:10:36.772Z,2.13
2022-12-25T09:13:04.220Z,2.03
2022-12-25T09:15:31.457Z,2.28
2022-12-25T09:17:58.316Z,2.20
2022-12-25T09:20:25.261Z,1.85
2022-12-25T09:22:52.074Z,1.95
2022-12-25T09:25:18.933Z,2.03
2022-12-25T09:27:45.779Z,2.20
2022-12-25T09:30:13.012Z,1.70
2022-12-25T09:32:40.409Z,1.90
2022-12-25T09:35:08.805Z,1.55
2022-12-25T09:37:35.922Z,2.20
2022-12-25T09:40:03.153Z,2.10
2022-12-25T09:42:31.575Z,1.70
2022-12-25T09:45:02.059Z,2.20
2022-12-25T09:47:30.810Z,2.10
2022-12-25T09:50:03.440Z,1.77
2022-12-25T09:52:35.947Z,1.73
2022-12-25T09:55:24.367Z,2.47
2022-12-25T09:57:56.271Z,2.60
2022-12-25T10:00:25.861Z,2.05
2022-12-25T10:03:19.333Z,2.53
2022-12-25T10:08:31.170Z,2.10
2022-12-25T10:11:16.761Z,2.15
2022-12-25T10:14:06.342Z,2.60
2022-12-25T10:16:39.061Z,1.90
2022-12-25T10:19:10.192Z,2.20
2022-12-25T10:21:37.461Z,2.05
2022-12-25T10:24:24.801Z,1.63
2022-12-25T10:26:52.501Z,2.20
2022-12-25T10:29:20.048Z,1.73
2022-12-25T10:31:49.950Z,2.33
2022-12-25T10:34:17.642Z,2.28
2022-12-25T10:36:46.335Z,2.40
2022-12-25T10:39:18.155Z,2.03
2022-12-25T10:42:01.067Z,2.60
2022-12-25T10:44:28.013Z,2.30
2022-12-25T10:46:59.622Z,4.10
2022-12-25T10:49:37.919Z,4.93
2022-12-25T10:52:19.803Z,2.40
2022-12-25T10:54:46.633Z,2.08
2022-12-25T10:57:19.437Z,2.97
2022-12-25T10:59:49.067Z,2.40
2022-12-25T11:02:25.716Z,2.92
2022-12-25T11:05:08.486Z,2.53
2022-12-25T11:07:46.818Z,2.50
2022-12-25T11:10:17.006Z,2.20
2022-12-25T11:12:45.868Z,2.80
2022-12-25T11:15:44.993Z,11.23
2022-12-25T11:18:27.504Z,5.88
2022-12-25T11:20:56.625Z,3.33
2022-12-25T11:23:25.489Z,2.58
2022-12-25T11:26:11.968Z,3.63
2022-12-25T11:28:40.392Z,7.28
2022-12-25T11:31:33.346Z,3.95
2022-12-25T11:34:05.780Z,3.58
2022-12-25T11:36:49.784Z,3.65
2022-12-25T11:39:29.780Z,3.28
2022-12-25T11:42:22.194Z,2.80
2022-12-25T11:45:02.481Z,2.30
2022-12-25T11:47:40.621Z,2.53
2022-12-25T11:50:46.463Z,3.05
2022-12-25T11:53:28.399Z,2.90
2022-12-25T11:56:06.520Z,2.83
2022-12-25T11:58:37.880Z,2.42
2022-12-25T12:01:16.749Z,3.28
2022-12-25T12:03:44.286Z,2.50
2022-12-25T12:06:30.911Z,3.30
2022-12-25T12:09:24.607Z,2.17
2022-12-25T12:12:01.963Z,1.92
2022-12-25T12:14:50.566Z,2.00
2022-12-25T12:17:18.461Z,1.65
2022-12-25T12:19:45.737Z,2.40
2022-12-25T12:22:23.478Z,3.38
2022-12-25T12:25:04.089Z,2.72
2022-12-25T12:27:40.627Z,3.72
2022-12-25T12:30:29.455Z,1.63
2022-12-25T12:33:01.134Z,1.60
2022-12-25T12:35:27.931Z,1.27
2022-12-25T12:38:03.700Z,1.40
2022-12-25T12:40:37.271Z,1.00
2022-12-25T12:43:05.907Z,1.50
2022-12-25T12:45:37.681Z,1.60
2022-12-25T12:48:22.277Z,1.60
2022-12-25T12:50:49.200Z,1.40
2022-12-25T12:53:30.029Z,1.30
2022-12-25T12:55:57.029Z,1.20
2022-12-25T12:58:33.238Z,1.00
2022-12-25T13:01:21.821Z,1.55
2022-12-25T13:04:33.459Z,1.33
2022-12-25T13:07:48.020Z,1.70
2022-12-25T13:10:34.338Z,1.50
2022-12-25T13:13:06.518Z,1.50
2022-12-25T13:15:35.140Z,5.37
2022-12-25T13:18:05.901Z,3.40
2022-12-25T13:20:58.153Z,2.17
2022-12-25T13:23:35.984Z,2.78
2022-12-25T13:26:12.930Z,2.08
2022-12-25T13:28:40.143Z,2.78
2022-12-25T13:31:22.813Z,2.40
2022-12-25T13:33:53.602Z,2.53
2022-12-25T13:36:20.468Z,2.72
2022-12-25T13:38:49.820Z,2.67
2022-12-25T13:41:40.080Z,3.25
2022-12-25T13:44:27.730Z,3.67
2022-12-25T13:46:54.703Z,3.10
2022-12-25T13:49:24.421Z,3.50
2022-12-25T13:51:51.552Z,3.92
2022-12-25T13:54:19.286Z,3.80
2022-12-25T13:56:52.055Z,4.18
2022-12-25T13:59:23.337Z,3.63
2022-12-25T14:01:51.290Z,3.38
2022-12-25T14:04:21.496Z,3.30
2022-12-25T14:06:49.112Z,4.10
2022-12-25T14:09:16.408Z,4.38
2022-12-25T14:11:50.213Z,3.63
2022-12-25T14:14:22.491Z,3.28
2022-12-25T14:16:51.348Z,3.60
2022-12-25T14:19:27.295Z,3.58
2022-12-25T14:22:10.819Z,4.22
2022-12-25T14:24:38.227Z,3.22
2022-12-25T14:27:21.128Z,3.40
2022-12-25T14:29:49.277Z,3.42
2022-12-25T14:32:24.578Z,2.88
2022-12-25T14:34:54.368Z,3.63
2022-12-25T14:37:29.572Z,3.38
2022-12-25T14:39:59.005Z,3.58
2022-12-25T14:42:29.302Z,2.85
2022-12-25T14:45:07.042Z,3.10
2022-12-25T14:47:49.973Z,3.60
2022-12-25T14:50:27.776Z,2.58
2022-12-25T14:52:54.775Z,3.40
2022-12-25T14:55:30.384Z,3.15
2022-12-25T14:58:01.590Z,3.53
2022-12-25T15:00:35.586Z,2.90
2022-12-25T15:03:05.215Z,3.80
2022-12-25T15:05:33.804Z,3.83
2022-12-25T15:08:02.074Z,3.80
2022-12-25T15:10:59.101Z,3.60
2022-12-25T15:13:19.205Z,3.47
2022-12-25T15:16:06.907Z,3.67
2022-12-25T15:18:38.660Z,3.42
2022-12-25T15:21:05.631Z,3.20
2022-12-25T15:23:32.704Z,3.38
2022-12-25T15:25:59.593Z,4.05
2022-12-25T15:28:26.453Z,3.70
2022-12-25T15:30:53.335Z,3.88
2022-12-25T15:33:20.282Z,3.42
2022-12-25T15:35:47.139Z,3.13
2022-12-25T15:38:14.153Z,3.22
2022-12-25T15:40:41.367Z,3.90
2022-12-25T15:43:38.729Z,3.92
2022-12-25T15:45:58.519Z,2.90
2022-12-25T15:48:25.343Z,3.38
2022-12-25T15:50:52.208Z,3.80
2022-12-25T15:53:19.032Z,4.38
2022-12-25T15:55:45.828Z,4.45
2022-12-25T15:58:15.143Z,4.03
2022-12-25T16:00:42.002Z,3.55
2022-12-25T16:03:08.931Z,3.40
2022-12-25T16:05:36.165Z,3.38
2022-12-25T16:08:02.963Z,4.65
2022-12-25T16:10:34.829Z,3.78
2022-12-25T16:13:05.179Z,4.00
2022-12-25T16:15:32.096Z,4.32
2022-12-25T16:17:58.966Z,3.60
2022-12-25T16:20:26.636Z,3.85
2022-12-25T16:22:53.527Z,3.85
2022-12-25T16:25:20.563Z,4.13
2022-12-25T16:27:47.586Z,4.18
2022-12-25T16:30:16.054Z,3.92
2022-12-25T16:32:43.185Z,4.45
2022-12-25T16:35:10.785Z,4.50
2022-12-25T16:37:37.655Z,4.55
2022-12-25T16:40:04.850Z,4.65
2022-12-25T16:42:31.680Z,4.18
2022-12-25T16:44:58.520Z,4.10
2022-12-25T16:47:25.862Z,4.00
2022-12-25T16:49:52.711Z,3.95
2022-12-25T16:52:19.612Z,3.95
2022-12-25T16:54:46.766Z,4.25
2022-12-25T16:57:14.298Z,5.72
2022-12-25T16:59:41.760Z,4.55
2022-12-25T17:02:20.188Z,4.40
2022-12-25T17:04:47.890Z,3.75
2022-12-25T17:07:15.664Z,3.83
2022-12-25T17:09:44.505Z,4.13
2022-12-25T17:12:11.709Z,4.00
2022-12-25T17:14:38.712Z,4.20
2022-12-25T17:17:05.814Z,4.22
2022-12-25T17:19:32.746Z,4.05
2022-12-25T17:22:00.112Z,4.18
2022-12-25T17:24:27.526Z,3.67
2022-12-25T17:26:54.536Z,3.67
2022-12-25T17:29:22.624Z,6.00
2022-12-25T17:31:50.488Z,4.20
2022-12-25T17:34:17.410Z,4.15
2022-12-25T17:36:44.262Z,4.95
2022-12-25T17:39:11.728Z,5.00
2022-12-25T17:41:38.806Z,4.60
2022-12-25T17:44:05.782Z,3.78
2022-12-25T17:46:32.734Z,3.75
2022-12-25T17:49:01.323Z,3.75
2022-12-25T17:51:29.478Z,4.05
2022-12-25T17:53:58.902Z,3.47
2022-12-25T17:56:26.241Z,3.95
2022-12-25T17:58:55.532Z,3.85
2022-12-25T18:01:23.626Z,3.20
2022-12-25T18:03:51.206Z,3.45
2022-12-25T18:06:20.507Z,3.38
2022-12-25T18:08:47.880Z,3.72
2022-12-25T18:11:21.392Z,4.20
2022-12-25T18:13:51.747Z,4.10
2022-12-25T18:16:20.591Z,3.97
2022-12-25T18:18:51.831Z,4.35
2022-12-25T18:21:21.155Z,3.37
2022-12-25T18:23:48.351Z,4.60
2022-12-25T18:26:15.374Z,5.00
2022-12-25T18:28:43.913Z,3.92
2022-12-25T18:31:16.867Z,3.30
2022-12-25T18:33:44.570Z,4.15
2022-12-25T18:36:13.703Z,3.40
2022-12-25T18:38:41.042Z,3.92
2022-12-25T18:41:09.280Z,6.10
2022-12-25T18:43:52.289Z,3.75
2022-12-25T18:46:24.012Z,3.55
2022-12-25T18:48:52.103Z,4.35
2022-12-25T18:51:19.367Z,4.10
2022-12-25T18:53:46.347Z,4.10
2022-12-25T18:56:15.654Z,4.20
2022-12-25T18:58:43.357Z,3.55
2022-12-25T19:01:21.817Z,3.72
2022-12-25T19:03:50.059Z,5.13
2022-12-25T19:06:25.207Z,5.68
2022-12-25T19:08:52.518Z,4.45
2022-12-25T19:11:19.793Z,4.65
2022-12-25T19:13:47.217Z,3.92
2022-12-25T19:16:15.047Z,3.90
2022-12-25T19:18:42.797Z,3.70
2022-12-25T19:21:10.189Z,4.57
2022-12-25T19:23:38.125Z,4.13
2022-12-25T19:26:06.180Z,4.07
2022-12-25T19:28:33.404Z,4.00
2022-12-25T19:31:01.174Z,3.80
2022-12-25T19:33:28.253Z,4.18
2022-12-25T19:36:02.514Z,3.38
2022-12-25T19:38:29.588Z,3.80
2022-12-25T19:41:02.230Z,4.18
2022-12-25T19:43:33.763Z,5.05
2022-12-25T19:46:01.779Z,3.75
2022-12-25T19:48:29.661Z,3.72
2022-12-25T19:50:56.542Z,3.95
2022-12-25T19:53:23.820Z,3.75
2022-12-25T19:55:54.161Z,4.05
2022-12-25T19:58:21.672Z,4.43
2022-12-25T20:01:02.986Z,3.83
2022-12-25T20:03:29.978Z,4.15
2022-12-25T20:05:57.087Z,4.25
2022-12-25T20:08:26.193Z,4.28
2022-12-25T20:10:53.025Z,3.83
2022-12-25T20:13:20.322Z,4.80
2022-12-25T20:15:47.301Z,4.38
2022-12-25T20:18:14.540Z,4.35
2022-12-25T20:20:41.342Z,4.55
2022-12-25T20:23:08.196Z,4.60
2022-12-25T20:25:38.764Z,4.97
2022-12-25T20:28:05.590Z,4.55
2022-12-25T20:30:32.447Z,4.65
2022-12-25T20:32:59.328Z,4.60
2022-12-25T20:35:26.166Z,5.18
2022-12-25T20:37:52.985Z,5.20
2022-12-25T20:40:19.816Z,4.43
2022-12-25T20:42:46.758Z,4.75
2022-12-25T20:45:13.594Z,5.18
2022-12-25T20:47:40.440Z,4.15
2022-12-25T20:50:07.808Z,4.50
2022-12-25T20:52:34.822Z,4.90
2022-12-25T20:55:01.650Z,5.10
2022-12-25T20:57:28.833Z,4.45
2022-12-25T20:59:55.622Z,4.95
2022-12-25T21:02:34.481Z,4.55
2022-12-25T21:05:03.785Z,4.40
2022-12-25T21:07:30.652Z,4.63
2022-12-25T21:09:57.468Z,5.05
2022-12-25T21:12:24.300Z,4.32
2022-12-25T21:14:51.409Z,4.38
2022-12-25T21:17:18.228Z,4.15
2022-12-25T21:19:45.089Z,4.32
2022-12-25T21:22:12.618Z,4.20
2022-12-25T21:24:39.592Z,4.97
2022-12-25T21:27:06.431Z,4.47
2022-12-25T21:29:33.337Z,4.25
2022-12-25T21:32:19.049Z,4.63
2022-12-25T21:34:46.118Z,4.63
2022-12-25T21:37:13.004Z,4.05
2022-12-25T21:39:39.972Z,4.60
2022-12-25T21:42:07.082Z,4.38
2022-12-25T21:44:34.427Z,5.00
2022-12-25T21:47:01.805Z,5.38
2022-12-25T21:49:47.190Z,4.18
2022-12-25T21:52:13.963Z,4.57
2022-12-25T21:54:40.911Z,4.30
2022-12-25T21:57:07.701Z,4.60
2022-12-25T21:59:34.919Z,3.92
2022-12-25T22:02:01.997Z,4.38
2022-12-25T22:04:28.942Z,4.05
2022-12-25T22:07:16.789Z,4.00
2022-12-25T22:09:45.173Z,4.05
2022-12-25T22:12:34.163Z,4.80
2022-12-25T22:15:09.874Z,4.82
2022-12-25T22:17:57.876Z,3.90
2022-12-25T22:20:30.848Z,4.75
2022-12-25T22:25:25.089Z,4.72
2022-12-25T22:27:52.687Z,4.32
2022-12-25T22:30:29.256Z,4.65
2022-12-25T22:32:56.413Z,4.07
2022-12-25T22:35:23.823Z,4.28
2022-12-25T22:37:51.403Z,4.40
2022-12-25T22:40:19.981Z,3.97
2022-12-25T22:42:47.002Z,4.30
2022-12-25T22:45:14.375Z,4.35
2022-12-25T22:47:41.850Z,3.67
2022-12-25T22:50:09.694Z,3.63
2022-12-25T22:52:37.078Z,4.03
2022-12-25T22:55:04.999Z,3.60
2022-12-25T22:57:32.022Z,4.15
2022-12-25T22:59:59.685Z,3.97
2022-12-25T23:02:26.965Z,3.85
2022-12-25T23:04:54.677Z,3.53
2022-12-25T23:07:21.519Z,3.47
2022-12-25T23:09:49.742Z,4.32
2022-12-25T23:12:35.543Z,3.72
2022-12-25T23:15:06.392Z,3.58
2022-12-25T23:17:52.365Z,3.97
2022-12-25T23:20:37.937Z,4.28
2022-12-25T23:23:26.505Z,3.17
2022-12-25T23:29:11.224Z,3.17
2022-12-25T23:31:39.900Z,3.03
2022-12-25T23:34:09.405Z,2.88
2022-12-25T23:36:36.690Z,3.33
2022-12-25T23:39:09.631Z,3.40
2022-12-25T23:41:41.668Z,3.63
2022-12-25T23:44:10.468Z,3.60
2022-12-25T23:46:38.764Z,3.33
2022-12-25T23:49:06.161Z,3.60
2022-12-25T23:51:35.597Z,4.28
2022-12-25T23:54:04.577Z,3.20
2022-12-25T23:56:31.583Z,2.83
2022-12-25T23:58:58.739Z,2.47
